Flight Track Log - Related Links

Times and Time Zones

All times are in EDT time to prevent confusion due to time zone crossing. See the SKW5653 flight status page for this flight to view local times or setup timezone preferences in your user account.

Time Position Orientation Groundspeed Altitude Reporting Facility
EDT Latitude Longitude Course Direction KTS MPH feet Rate Location/Type
Fri 11:33:35 AM 33.9306 -118.4539 97° East 176 203 1,700  Level Los Angeles Center
Fri 11:34:37 AM 33.8864 -118.5175 230° Southwest 230 265 3,500 1,790 Climbing Los Angeles Center
Fri 11:35:00 AM 33.8980 -117.9364 96° East  Level Estimated
Fri 11:35:39 AM 33.8178 -118.5319 190° South 269 310 5,400  Level Los Angeles Center
Fri 11:36:00 AM 33.8827 -117.7793 97° East  Level Estimated
Fri 11:36:41 AM 33.7400 -118.5244 175° South 282 325 7,600  Level Los Angeles Center
Fri 11:37:00 AM 33.8673 -117.6222 97° East  Level Estimated
Fri 11:37:44 AM 33.6611 -118.4550 144° Southeast 309 356 10,000  Level Los Angeles Center
Fri 11:38:00 AM 33.8517 -117.4652 97° East  Level Estimated
Fri 11:38:46 AM 33.6022 -118.3806 134° Southeast 310 357 12,100  Level Los Angeles Center
Fri 11:39:48 AM 33.5864 -118.2742 100° East 337 388 13,400 1,645 Climbing Los Angeles Center
Fri 11:40:50 AM 33.5886 -118.1603 89° East 346 398 15,500 2,129 Climbing Los Angeles Center
Fri 11:41:52 AM 33.5914 -118.0244 89° East 346 398 17,800 1,824 Climbing Los Angeles Center
Fri 11:42:55 AM 33.5950 -117.9092 88° East 346 398 19,300 1,296 Climbing Los Angeles Center
Fri 11:43:57 AM 33.5978 -117.7881 88° East 361 415 20,500 1,210 Climbing Los Angeles Center
Fri 11:44:59 AM 33.6014 -117.6619 88° East 375 432 21,800 1,306 Climbing Los Angeles Center
Fri 11:46:01 AM 33.6039 -117.5353 89° East 378 435 23,200 1,355 Climbing Los Angeles Center
Fri 11:47:03 AM 33.6078 -117.3786 88° East 392 451 24,600 1,248 Climbing Los Angeles Center
Fri 11:48:06 AM 33.6092 -117.2447 89° East 397 457 25,800 1,152 Climbing Los Angeles Center
Fri 11:49:08 AM 33.6119 -117.1092 89° East 406 467 27,000 1,113 Climbing Los Angeles Center
Fri 11:50:10 AM 33.6031 -116.9731 94° East 408 470 28,100 919 Climbing Los Angeles Center
Fri 11:51:12 AM 33.5872 -116.8372 98° East 409 471 28,900 774 Climbing Los Angeles Center
Fri 11:52:14 AM 33.5708 -116.6972 98° East 413 475 29,700 774 Climbing Los Angeles Center
Fri 11:53:16 AM 33.5492 -116.5217 98° East 434 499 30,500 624 Climbing Los Angeles Center
Fri 11:54:19 AM 33.5300 -116.3717 99° East 449 517 31,000 528 Climbing Los Angeles Center
Fri 11:55:21 AM 33.5103 -116.2181 99° East 461 531 31,600 629 Climbing Los Angeles Center
Fri 11:56:23 AM 33.4903 -116.0608 99° East 469 540 32,300 774 Climbing Los Angeles Center
Fri 11:57:25 AM 33.4689 -115.9047 99° East 471 542 33,200 919 Climbing Los Angeles Center
Fri 11:58:27 AM 33.4497 -115.7500 98° East 471 542 34,200 1,056 Climbing Los Angeles Center
Fri 11:59:30 AM 33.4242 -115.5669 99° East 466 536 35,400 1,056 Climbing Los Angeles Center
Fri 12:00:32 PM 33.4044 -115.4164 99° East 461 531 36,400 774 Climbing Los Angeles Center
Fri 12:01:34 PM 33.3842 -115.2672 99° East 457 526 37,000 290 Climbing Los Angeles Center
Fri 12:02:36 PM 33.3644 -115.1158 99° East 458 527 37,000  Level Los Angeles Center
Fri 12:03:38 PM 33.3414 -114.9614 100° East 469 540 37,000  Level Los Angeles Center
Fri 12:04:41 PM 33.3208 -114.8067 99° East 471 542 37,000  Level Los Angeles Center
Fri 12:05:43 PM 33.2956 -114.6239 99° East 468 539 37,000  Level Los Angeles Center
Fri 12:06:45 PM 33.2744 -114.4733 99° East 464 534 37,000  Level Los Angeles Center
Fri 12:07:47 PM 33.2517 -114.3214 100° East 464 534 37,000  Level Los Angeles Center
Fri 12:08:49 PM 33.2294 -114.1667 100° East 470 541 37,000  Level Los Angeles Center
Fri 12:09:52 PM 33.2081 -114.0114 99° East 473 544 37,000  Level Los Angeles Center
Fri 12:10:54 PM 33.1847 -113.8553 100° East 475 547 37,000  Level Los Angeles Center
Fri 12:11:56 PM 33.1564 -113.6681 100° East 478 550 37,000  Level Los Angeles Center
Fri 12:12:58 PM 33.1325 -113.5114 100° East 480 552 37,000  Level Los Angeles Center
Fri 12:14:01 PM 33.1072 -113.3425 100° East 481 554 37,000  Level Los Angeles Center
Fri 12:15:03 PM 33.0825 -113.1847 101° East 481 554 37,000  Level Los Angeles Center
Fri 12:16:22 PM 33.0542 -112.9922 100° East 481 554 37,000  Level Albuquerque Center
Fri 12:17:24 PM 33.0292 -112.8325 101° East 484 557 37,000  Level Albuquerque Center
Fri 12:18:26 PM 33.0042 -112.6753 101° East 484 557 37,000  Level Albuquerque Center
Fri 12:19:28 PM 32.9725 -112.4836 101° East 484 557 37,000  Level Albuquerque Center
Fri 12:20:30 PM 32.9464 -112.3236 101° East 486 559 37,000  Level Albuquerque Center
Fri 12:21:32 PM 32.9206 -112.1631 101° East 487 560 37,000  Level Albuquerque Center
Fri 12:22:34 PM 32.8958 -112.0050 101° East 488 562 37,000  Level Albuquerque Center
Fri 12:23:37 PM 32.8697 -111.8464 101° East 488 562 37,000  Level Albuquerque Center
Fri 12:24:39 PM 32.8439 -111.6892 101° East 488 562 37,000  Level Albuquerque Center
Fri 12:25:41 PM 32.8119 -111.4992 101° East 488 562 37,000  Level Albuquerque Center
Fri 12:26:43 PM 32.7867 -111.3419 101° East 489 563 37,000  Level Albuquerque Center
Fri 12:27:45 PM 32.7594 -111.1853 102° East 488 562 37,000  Level Albuquerque Center
Fri 12:28:47 PM 32.7317 -111.0275 102° East 488 562 37,000  Level Albuquerque Center
Fri 12:29:49 PM 32.7036 -110.8692 102° East 489 563 37,000  Level Albuquerque Center
Fri 12:30:52 PM 32.6714 -110.6806 101° East 489 563 37,000  Level Albuquerque Center
Fri 12:31:54 PM 32.6431 -110.5225 102° East 489 563 37,000  Level Albuquerque Center
Fri 12:32:56 PM 32.6153 -110.3656 102° East 489 563 37,000  Level Albuquerque Center
Fri 12:33:58 PM 32.5858 -110.1936 101° East 489 563 37,000  Level Albuquerque Center
Fri 12:35:00 PM 32.5558 -110.0375 103° East 489 563 37,000  Level Albuquerque Center
Fri 12:36:02 PM 32.5283 -109.8808 102° East 489 563 37,000  Level Albuquerque Center
Fri 12:37:04 PM 32.4989 -109.7253 103° East 489 563 37,000  Level Albuquerque Center
Fri 12:38:07 PM 32.4622 -109.5358 103° East 491 565 37,000  Level Albuquerque Center
Fri 12:39:08 PM 32.4344 -109.3797 102° East 491 565 37,000  Level Albuquerque Center
Fri 12:40:11 PM 32.4042 -109.2250 103° East 491 565 37,000  Level Albuquerque Center
Fri 12:41:13 PM 32.3761 -109.0697 102° East 491 565 37,000  Level Albuquerque Center
Fri 12:42:15 PM 32.3464 -108.9139 103° East 490 564 37,000  Level Albuquerque Center
Fri 12:43:17 PM 32.3108 -108.7272 103° East 490 564 37,000  Level Albuquerque Center
Fri 12:44:19 PM 32.2811 -108.5719 103° East 490 564 37,000  Level Albuquerque Center
Fri 12:45:21 PM 32.2514 -108.4214 103° East 490 564 37,000  Level Albuquerque Center
Fri 12:46:23 PM 32.2206 -108.2650 103° East 490 564 37,000  Level Albuquerque Center
Fri 12:47:25 PM 32.1839 -108.0783 103° East 490 564 37,000  Level Albuquerque Center
Fri 12:48:28 PM 32.1536 -107.9222 103° East 490 564 37,000  Level Albuquerque Center
Fri 12:49:30 PM 32.1225 -107.7681 103° East 490 564 37,000  Level Albuquerque Center
Fri 12:50:32 PM 32.0919 -107.6128 103° East 490 564 37,000  Level Albuquerque Center
Fri 12:51:34 PM 32.0603 -107.4583 104° East 490 564 37,000  Level Albuquerque Center
Fri 12:52:36 PM 32.0242 -107.2744 103° East 489 563 37,000  Level Albuquerque Center
Fri 12:53:38 PM 31.9928 -107.1208 104° East 489 563 37,000  Level Albuquerque Center
Fri 12:54:40 PM 31.9608 -106.9675 104° East 488 562 37,000  Level Albuquerque Center
Fri 12:55:42 PM 31.9294 -106.8164 104° East 483 556 37,000  Level Albuquerque Center
Fri 12:56:45 PM 31.8969 -106.6639 104° East 482 555 37,000  Level Albuquerque Center
Fri 12:57:47 PM 31.8569 -106.4794 104° East 483 556 37,000  Level Albuquerque Center
Fri 12:58:49 PM 31.8244 -106.3261 104° East 485 558 37,000  Level Albuquerque Center
Fri 12:59:51 PM 31.8047 -106.1681 98° East 487 560 37,000  Level Albuquerque Center
Fri 01:00:53 PM 31.7839 -106.0156 99° East 475 547 37,000  Level Albuquerque Center
Fri 01:01:55 PM 31.7656 -105.8614 98° East 475 547 37,000  Level Albuquerque Center
Fri 01:02:57 PM 31.7461 -105.7075 98° East 475 547 37,000  Level Albuquerque Center
Fri 01:03:59 PM 31.7239 -105.5225 98° East 476 548 37,000  Level Albuquerque Center
Fri 01:05:03 PM 31.7050 -105.3683 98° East 476 548 37,000  Level Albuquerque Center
Fri 01:06:04 PM 31.6861 -105.2164 98° East 471 542 37,000  Level Albuquerque Center
Fri 01:07:06 PM 31.6669 -105.0614 98° East 472 543 37,000  Level Albuquerque Center
Fri 01:08:08 PM 31.6478 -104.9050 98° East 478 550 37,000  Level Albuquerque Center
Fri 01:09:10 PM 31.6275 -104.7514 99° East 478 550 37,000  Level Albuquerque Center
Fri 01:10:12 PM 31.6078 -104.5981 99° East 478 550 37,000  Level Albuquerque Center
Fri 01:11:14 PM 31.5839 -104.4150 99° East 477 549 37,000  Level Albuquerque Center
Fri 01:12:16 PM 31.5650 -104.2644 98° East 473 544 37,000  Level Albuquerque Center
Fri 01:13:19 PM 31.5447 -104.1131 99° East 471 542 37,000  Level Albuquerque Center
Fri 01:14:21 PM 31.5247 -103.9614 99° East 471 542 37,000  Level Albuquerque Center
Fri 01:15:23 PM 31.5044 -103.8106 99° East 471 542 37,000  Level Albuquerque Center
Fri 01:16:25 PM 31.4797 -103.6339 99° East 469 540 37,000  Level Albuquerque Center
Fri 01:17:27 PM 31.4592 -103.4856 99° East 467 537 37,000  Level Albuquerque Center
Fri 01:18:29 PM 31.4403 -103.3369 98° East 465 535 37,000  Level Albuquerque Center
Fri 01:19:31 PM 31.4219 -103.1883 98° East 465 535 37,000  Level Albuquerque Center
Fri 01:20:34 PM 31.4028 -103.0386 98° East 465 535 37,000  Level Albuquerque Center
Fri 01:21:36 PM 31.3803 -102.8606 98° East 464 534 37,000  Level Albuquerque Center
Fri 01:22:38 PM 31.3611 -102.7131 99° East 464 534 37,000  Level Albuquerque Center
Fri 01:23:40 PM 31.3425 -102.5650 98° East 463 533 37,000  Level Albuquerque Center
Fri 01:24:42 PM 31.3206 -102.3986 99° East 478 550 37,000  Level Albuquerque Center
Fri 01:25:44 PM 31.3008 -102.2522 99° East 467 537 37,000  Level Albuquerque Center
Fri 01:26:46 PM 31.2811 -102.1050 99° East 464 534 37,000  Level Albuquerque Center
Fri 01:27:48 PM 31.2622 -101.9569 98° East 463 533 37,000  Level Albuquerque Center
Fri 01:28:51 PM 31.2425 -101.8047 99° East 463 533 37,000  Level Albuquerque Center
Fri 01:29:53 PM 31.2217 -101.6567 99° East 463 533 37,000  Level Albuquerque Center
Fri 01:31:15 PM 31.1944 -101.4494 99° East 464 534 37,000  Level Houston Center
Fri 01:32:17 PM 31.1739 -101.2978 99° East 465 535 37,000  Level Houston Center
Fri 01:33:19 PM 31.1489 -101.1172 99° East 466 536 37,000  Level Houston Center
Fri 01:34:22 PM 31.1286 -100.9672 99° East 466 536 37,000  Level Houston Center
Fri 01:35:24 PM 31.1069 -100.8169 100° East 468 539 37,000  Level Houston Center
Fri 01:36:26 PM 31.0839 -100.6669 100° East 468 539 37,000  Level Houston Center
Fri 01:37:28 PM 31.0631 -100.5161 99° East 469 540 37,000  Level Houston Center
Fri 01:38:30 PM 31.0414 -100.3661 100° East 469 540 37,000  Level Houston Center
Fri 01:39:33 PM 31.0139 -100.1864 100° East 469 540 37,000  Level Houston Center
Fri 01:40:35 PM 30.9911 -100.0358 100° East 469 540 37,000 -871 Level Houston Center
Fri 01:41:37 PM 30.9678 -99.8850 100° East 471 542 35,200 -1,887 Descending Houston Center
Fri 01:42:39 PM 30.9456 -99.7303 99° East 478 550 33,100 -2,032 Descending Houston Center
Fri 01:43:41 PM 30.9208 -99.5781 101° East 480 552 31,000 -2,064 Descending Houston Center
Fri 01:44:44 PM 30.8983 -99.4292 100° East 472 543 28,800 -2,256 Descending Houston Center
Fri 01:45:46 PM 30.8706 -99.2536 100° East 466 536 26,300 -2,129 Descending Houston Center
Fri 01:46:48 PM 30.8489 -99.1131 100° East 453 521 24,400 -1,887 Descending Houston Center
Fri 01:47:50 PM 30.8278 -98.9764 100° East 435 501 22,400 -1,935 Descending Houston Center
Fri 01:48:52 PM 30.8061 -98.8422 101° East 428 493 20,400 -1,920 Descending Houston Center
Fri 01:49:55 PM 30.7889 -98.7119 99° East 415 478 18,400 -2,112 Descending Houston Center
Fri 01:50:57 PM 30.7278 -98.5811 118° Southeast 388 447 16,000 -2,129 Descending Houston Center
Fri 01:51:59 PM 30.6703 -98.4819 124° Southeast 374 430 14,000 -1,935 Descending Houston Center
Fri 01:53:01 PM 30.6150 -98.3881 124° Southeast 359 413 12,000 -2,100 Descending Houston Center
Fri 01:53:39 PM 30.5833 -98.3342 124° Southeast 347 399 10,500 -1,839 Descending Houston Center
Fri 01:54:03 PM 30.5631 -98.2983 123° Southeast 341 392 10,100 -448 Descending Houston Center
Fri 01:54:46 PM 30.5286 -98.2339 122° Southeast 296 341 10,000 -95 Descending Houston Center
Fri 01:55:06 PM 30.5225 -98.2156 111° Southeast 303 349 10,000  Level Houston Center
Fri 01:55:46 PM 30.5083 -98.1442 103° East 284 327 10,000 -194 Level Houston Center
Fri 01:56:08 PM 30.5011 -98.1072 103° East 291 335 9,800 -1,429 Descending Houston Center
Fri 01:57:10 PM 30.4811 -98.0194 105° East 287 330 8,000 -1,626 Descending Houston Center
Fri 01:57:55 PM 30.4661 -97.9528 105° East 284 327 6,900 -1,355 Descending Houston Center
Fri 01:58:12 PM 30.4622 -97.9314 102° East 285 328 6,600 -1,400 Descending Houston Center
Fri 01:58:55 PM 30.4442 -97.8706 109° East 274 315 5,500 -1,333 Descending Houston Center
Fri 01:59:15 PM 30.4347 -97.8525 121° Southeast 272 313 5,200 -1,180 Descending Houston Center
Fri 01:59:56 PM 30.4117 -97.7897 113° Southeast 260 299 4,300 -1,065 Descending Houston Center
Fri 02:00:17 PM 30.4072 -97.7753 110° East 265 305 4,100 -900 Descending Houston Center
Fri 02:00:56 PM 30.3844 -97.7203 116° Southeast 245 282 3,400 -968 Descending Houston Center
Fri 02:01:19 PM 30.3653 -97.7092 153° Southeast 239 275 3,100 -689 Descending Houston Center
Fri 02:01:57 PM 30.3336 -97.6900 152° Southeast 204 235 2,700 -484 Descending Houston Center
Fri 02:02:21 PM 30.3103 -97.6828 165° South 223 257 2,600 -806 Descending Houston Center
Fri 02:03:04 PM 30.2803 -97.6819 179° South 180 207 1,800 -1,065 Descending Houston Center
Fri 02:03:23 PM 30.2619 -97.6794 173° South 199 229 1,500 -787 Descending Houston Center
Fri 02:04:05 PM 30.2403 -97.6819 186° South 129 148 1,000 -381 Descending Houston Center
Fri 02:04:26 PM 30.2150 -97.6800 176° South 170 196 1,100 286 Climbing Houston Center

Login

Don't have an account? Register now (free) for customized features, flight alerts, and more!